createdAt,value
2019-05-09T00:02:15.796Z,97457.94
2019-05-09T00:04:45.526Z,97458.27
2019-05-09T00:07:15.297Z,97452.74
2019-05-09T00:09:44.946Z,97451.93
2019-05-09T00:12:14.923Z,97450.34
2019-05-09T00:14:44.558Z,97447.16
2019-05-09T00:17:14.315Z,97442.56
2019-05-09T00:19:44.042Z,97446.45
2019-05-09T00:22:13.929Z,97440.80
2019-05-09T00:24:44.761Z,97435.75
2019-05-09T00:27:14.796Z,97440.02
2019-05-09T00:29:49.076Z,97439.06
2019-05-09T00:32:26.362Z,97432.70
2019-05-09T00:35:04.041Z,97435.36
2019-05-09T00:37:53.499Z,97429.09
2019-05-09T00:40:24.840Z,97427.33
2019-05-09T00:42:55.460Z,97429.34
2019-05-09T00:45:34.569Z,97427.94
2019-05-09T00:48:04.677Z,97431.36
2019-05-09T00:50:34.304Z,97430.44
2019-05-09T00:53:04.069Z,97432.35
2019-05-09T00:55:33.716Z,97434.50
2019-05-09T00:58:04.195Z,97433.23
2019-05-09T01:00:34.025Z,97427.22
2019-05-09T01:03:03.756Z,97429.17
2019-05-09T01:05:34.148Z,97428.28
2019-05-09T01:08:04.997Z,97423.05
2019-05-09T01:10:34.330Z,97420.96
2019-05-09T01:13:04.257Z,97418.56
2019-05-09T01:15:33.951Z,97414.00
2019-05-09T01:18:04.602Z,97410.52
2019-05-09T01:20:34.476Z,97416.30
2019-05-09T01:23:04.139Z,97412.23
2019-05-09T01:25:33.872Z,97413.76
2019-05-09T01:28:03.546Z,97404.04
2019-05-09T01:30:33.771Z,97402.52
2019-05-09T01:33:24.168Z,97399.34
2019-05-09T01:35:54.217Z,97394.20
2019-05-09T01:38:23.955Z,97391.05
2019-05-09T01:40:53.601Z,97391.91
2019-05-09T01:43:24.371Z,97393.25
2019-05-09T01:45:54.219Z,97393.74
2019-05-09T01:48:23.933Z,97377.66
2019-05-09T01:50:53.854Z,97388.02
2019-05-09T01:53:25.179Z,97382.44
2019-05-09T01:55:58.341Z,97380.60
2019-05-09T01:58:30.910Z,97375.08
2019-05-09T02:01:03.673Z,97381.51
2019-05-09T02:03:33.814Z,97378.23
2019-05-09T02:06:03.819Z,97368.74
2019-05-09T02:08:34.458Z,97367.89
2019-05-09T02:11:05.021Z,97372.92
2019-05-09T02:13:34.835Z,97366.02
2019-05-09T02:16:24.298Z,97358.93
2019-05-09T02:18:55.613Z,97359.92
2019-05-09T02:21:25.293Z,97353.67
2019-05-09T02:23:55.002Z,97346.05
2019-05-09T02:26:24.668Z,97339.13
2019-05-09T02:28:54.175Z,97343.93
2019-05-09T02:31:24.635Z,97346.02
2019-05-09T02:33:54.588Z,97344.30
2019-05-09T02:36:24.351Z,97337.34
2019-05-09T02:38:54.057Z,97338.89
2019-05-09T02:41:23.726Z,97332.34
2019-05-09T02:43:53.450Z,97326.71
2019-05-09T02:46:29.098Z,97317.78
2019-05-09T02:48:59.445Z,97324.64
2019-05-09T02:51:29.376Z,97318.77
2019-05-09T02:53:59.226Z,97305.34
2019-05-09T02:56:29.996Z,97311.35
2019-05-09T02:59:09.555Z,97308.23
2019-05-09T03:01:58.577Z,97307.91
2019-05-09T03:04:28.502Z,97306.45
2019-05-09T03:06:59.693Z,97308.00
2019-05-09T03:09:29.931Z,97305.98
2019-05-09T03:12:20.516Z,97298.77
2019-05-09T03:14:30.942Z,97300.09
2019-05-09T03:17:00.611Z,97283.97
2019-05-09T03:19:30.321Z,97282.98
2019-05-09T03:22:04.667Z,97279.33
2019-05-09T03:24:34.385Z,97280.55
2019-05-09T03:27:08.519Z,97279.35
2019-05-09T03:29:39.995Z,97272.81
2019-05-09T03:32:09.832Z,97269.95
2019-05-09T03:34:39.459Z,97264.28
2019-05-09T03:37:09.418Z,97254.70
2019-05-09T03:39:39.182Z,97249.63
2019-05-09T03:42:09.000Z,97250.79
2019-05-09T03:44:39.003Z,97247.38
2019-05-09T03:47:10.469Z,97246.02
2019-05-09T03:49:40.759Z,97237.20
2019-05-09T03:52:10.925Z,97238.70
2019-05-09T03:54:40.930Z,97231.28
2019-05-09T03:57:12.988Z,97228.59
2019-05-09T03:59:43.145Z,97230.44
2019-05-09T04:02:13.253Z,97225.03
2019-05-09T04:04:43.614Z,97223.41
2019-05-09T04:07:13.869Z,97224.50
2019-05-09T04:09:44.133Z,97219.28
2019-05-09T04:12:14.315Z,97212.77
2019-05-09T04:14:44.600Z,97213.76
2019-05-09T04:17:14.965Z,97205.55
2019-05-09T04:19:47.704Z,97207.69
2019-05-09T04:22:18.154Z,97201.97
2019-05-09T04:24:49.419Z,97207.22
2019-05-09T04:27:24.049Z,97205.20
2019-05-09T04:29:54.188Z,97205.02
2019-05-09T04:32:24.575Z,97202.44
2019-05-09T04:34:53.670Z,97201.91
2019-05-09T04:37:24.263Z,97202.30
2019-05-09T04:40:01.581Z,97199.16
2019-05-09T04:42:28.347Z,97202.78
2019-05-09T04:45:09.725Z,97191.19
2019-05-09T04:47:41.420Z,97185.17
2019-05-09T04:50:09.593Z,97178.82
2019-05-09T04:52:40.035Z,97174.44
2019-05-09T04:55:11.205Z,97161.38
2019-05-09T04:57:41.769Z,97163.26
2019-05-09T05:00:13.636Z,97155.55
2019-05-09T05:02:45.306Z,97152.16
2019-05-09T05:05:17.942Z,97150.52
2019-05-09T05:07:48.101Z,97162.62
2019-05-09T05:10:18.558Z,97161.44
2019-05-09T05:12:48.708Z,97150.53
2019-05-09T05:15:20.548Z,97150.17
2019-05-09T05:17:50.003Z,97145.94
2019-05-09T05:20:21.769Z,97143.95
2019-05-09T05:22:58.074Z,97139.77
2019-05-09T05:25:28.154Z,97141.15
2019-05-09T05:27:58.663Z,97138.89
2019-05-09T05:30:28.800Z,97140.59
2019-05-09T05:33:00.481Z,97140.64
2019-05-09T05:35:32.398Z,97137.97
2019-05-09T05:38:02.871Z,97134.83
2019-05-09T05:40:34.025Z,97131.67
2019-05-09T05:43:04.193Z,97128.86
2019-05-09T05:45:37.509Z,97124.03
2019-05-09T05:48:09.492Z,97121.16
2019-05-09T05:50:39.766Z,97114.97
2019-05-09T05:53:10.135Z,97110.41
2019-05-09T05:55:40.492Z,97106.02
2019-05-09T05:58:11.032Z,97103.83
2019-05-09T06:00:41.236Z,97095.59
2019-05-09T06:03:11.588Z,97102.51
2019-05-09T06:05:41.742Z,97090.71
2019-05-09T06:08:11.859Z,97090.05
2019-05-09T06:10:42.241Z,97087.01
2019-05-09T06:13:12.449Z,97089.03
2019-05-09T06:15:43.047Z,97088.38
2019-05-09T06:18:13.406Z,97086.19
2019-05-09T06:20:45.685Z,97079.09
2019-05-09T06:23:17.643Z,97074.58
2019-05-09T06:25:48.439Z,97077.09
2019-05-09T06:28:19.069Z,97068.34
2019-05-09T06:30:49.452Z,97072.55
2019-05-09T06:33:19.717Z,97066.17
2019-05-09T06:35:49.922Z,97064.63
2019-05-09T06:38:20.105Z,97060.27
2019-05-09T06:40:50.424Z,97056.57
2019-05-09T06:43:22.085Z,97051.84
2019-05-09T06:46:01.159Z,97051.34
2019-05-09T06:48:31.665Z,97042.94
2019-05-09T06:51:01.783Z,97049.16
2019-05-09T06:53:32.452Z,97046.29
2019-05-09T06:56:02.749Z,97033.67
2019-05-09T06:58:34.426Z,97038.05
2019-05-09T07:01:23.842Z,97029.31
2019-05-09T07:03:53.980Z,97033.52
2019-05-09T07:06:34.651Z,97034.69
2019-05-09T07:09:14.906Z,97038.56
2019-05-09T07:11:48.422Z,97033.86
2019-05-09T07:14:33.877Z,97034.53
2019-05-09T07:17:02.811Z,97034.03
2019-05-09T07:19:32.939Z,97038.41
2019-05-09T07:22:09.310Z,97021.58
2019-05-09T07:25:06.074Z,97018.22
2019-05-09T07:27:31.052Z,97012.47
2019-05-09T07:30:02.855Z,97020.06
2019-05-09T07:32:38.929Z,97010.47
2019-05-09T07:35:10.444Z,96996.51
2019-05-09T07:37:40.401Z,96988.94
2019-05-09T07:40:10.741Z,96988.09
2019-05-09T07:42:40.815Z,97001.55
2019-05-09T07:45:10.991Z,96994.80
2019-05-09T07:47:40.878Z,97002.72
2019-05-09T07:50:11.295Z,96985.02
2019-05-09T07:52:41.674Z,96991.08
2019-05-09T07:55:12.046Z,96972.88
2019-05-09T07:57:46.913Z,96971.02
2019-05-09T08:00:14.344Z,96968.97
2019-05-09T08:02:44.665Z,96965.14
2019-05-09T08:05:19.493Z,96962.63
2019-05-09T08:07:49.944Z,96958.72
2019-05-09T08:10:20.018Z,96956.88
2019-05-09T08:12:50.012Z,96950.66
2019-05-09T08:15:20.481Z,96949.45
2019-05-09T08:17:52.125Z,96942.08
2019-05-09T08:20:27.721Z,96938.19
2019-05-09T08:23:02.191Z,96926.77
2019-05-09T08:25:31.876Z,96920.67
2019-05-09T08:28:02.239Z,96921.20
2019-05-09T08:30:36.085Z,96912.45
2019-05-09T08:33:03.580Z,96912.11
2019-05-09T08:35:33.993Z,96906.53
2019-05-09T08:38:04.288Z,96913.95
2019-05-09T08:40:34.506Z,96915.63
2019-05-09T08:43:04.812Z,96916.59
2019-05-09T08:45:35.231Z,96893.69
2019-05-09T08:48:05.577Z,96908.55
2019-05-09T08:50:38.929Z,96910.56
2019-05-09T08:53:09.648Z,96906.32
2019-05-09T08:55:39.204Z,96895.35
2019-05-09T08:58:09.547Z,96904.44
2019-05-09T09:00:39.785Z,96897.03
2019-05-09T09:03:10.190Z,96908.17
2019-05-09T09:05:43.305Z,96905.45
2019-05-09T09:08:12.311Z,96903.27
2019-05-09T09:10:42.429Z,96895.45
2019-05-09T09:13:12.656Z,96889.39
2019-05-09T09:16:14.507Z,96890.91
2019-05-09T09:18:14.780Z,96887.38
2019-05-09T09:20:44.982Z,96899.06
2019-05-09T09:23:17.878Z,96888.23
2019-05-09T09:25:48.687Z,96888.74
2019-05-09T09:28:18.376Z,96907.50
2019-05-09T09:30:49.069Z,96900.22
2019-05-09T09:33:19.639Z,96906.28
2019-05-09T09:35:50.793Z,96900.63
2019-05-09T09:38:21.458Z,96909.73
2019-05-09T09:40:51.638Z,96909.59
2019-05-09T09:43:21.947Z,96904.48
2019-05-09T09:46:06.321Z,96910.98
2019-05-09T09:48:24.084Z,96915.28
2019-05-09T09:50:54.437Z,96926.31
2019-05-09T09:53:24.657Z,96930.36
2019-05-09T09:55:54.576Z,96935.19
2019-05-09T09:58:24.562Z,96940.19
2019-05-09T10:00:54.198Z,96948.92
2019-05-09T10:03:25.144Z,96943.28
2019-05-09T10:05:55.043Z,96942.13
2019-05-09T10:08:25.674Z,96957.91
2019-05-09T10:10:58.684Z,96963.03
2019-05-09T10:13:28.626Z,96972.70
2019-05-09T10:16:01.859Z,96973.98
2019-05-09T10:18:33.952Z,96974.48
2019-05-09T10:21:19.873Z,96987.60
2019-05-09T10:23:50.003Z,96995.93
2019-05-09T10:26:20.271Z,97003.06
2019-05-09T10:28:50.400Z,97020.54
2019-05-09T10:31:20.649Z,97015.41
2019-05-09T10:33:51.058Z,97036.05
2019-05-09T10:36:22.061Z,97040.44
2019-05-09T10:38:52.987Z,97048.50
2019-05-09T10:41:23.832Z,97050.52
2019-05-09T10:44:08.350Z,97055.48
2019-05-09T10:46:56.464Z,97077.34
2019-05-09T10:49:17.784Z,97087.30
2019-05-09T10:51:48.549Z,97094.90
2019-05-09T10:54:19.055Z,97095.09
2019-05-09T10:56:49.210Z,97106.03
2019-05-09T10:59:19.182Z,97109.69
2019-05-09T11:01:49.827Z,97124.66
2019-05-09T11:04:20.312Z,97130.50
2019-05-09T11:06:50.504Z,97130.39
2019-05-09T11:09:20.738Z,97136.90
2019-05-09T11:11:51.140Z,97136.72
2019-05-09T11:14:32.731Z,97147.11
2019-05-09T11:17:06.725Z,97150.22
2019-05-09T11:19:24.467Z,97156.47
2019-05-09T11:21:54.700Z,97164.00
2019-05-09T11:24:40.594Z,97164.91
2019-05-09T11:26:58.816Z,97162.31
2019-05-09T11:29:28.712Z,97174.92
2019-05-09T11:31:58.979Z,97178.49
2019-05-09T11:34:29.278Z,97185.47
2019-05-09T11:36:59.554Z,97201.52
2019-05-09T11:39:36.499Z,97207.62
2019-05-09T11:42:02.293Z,97212.39
2019-05-09T11:44:32.642Z,97213.06
2019-05-09T11:47:03.606Z,97209.10
2019-05-09T11:49:34.737Z,97215.80
2019-05-09T11:52:04.971Z,97225.38
2019-05-09T11:54:35.132Z,97227.39
2019-05-09T11:57:07.499Z,97238.56
2019-05-09T11:59:37.964Z,97240.95
2019-05-09T12:02:08.907Z,97240.69
2019-05-09T12:04:39.607Z,97256.38
2019-05-09T12:07:09.789Z,97253.88
2019-05-09T12:09:40.167Z,97268.08
2019-05-09T12:12:10.560Z,97269.04
2019-05-09T12:14:40.730Z,97279.62
2019-05-09T12:17:10.802Z,97282.93
2019-05-09T12:19:40.967Z,97276.51
2019-05-09T12:22:11.448Z,97285.95
2019-05-09T12:24:41.806Z,97289.72
2019-05-09T12:27:12.275Z,97291.57
2019-05-09T12:29:42.395Z,97301.80
2019-05-09T12:32:12.771Z,97295.28
2019-05-09T12:34:43.133Z,97300.55
2019-05-09T12:37:13.382Z,97298.80
2019-05-09T12:39:44.471Z,97302.09
2019-05-09T12:42:14.901Z,97303.31
2019-05-09T12:44:45.096Z,97309.13
2019-05-09T12:47:15.274Z,97328.45
2019-05-09T12:49:45.643Z,97329.09
2019-05-09T12:52:18.373Z,97331.32
2019-05-09T12:54:48.425Z,97331.02
2019-05-09T12:57:19.401Z,97344.27
2019-05-09T12:59:52.967Z,97335.67
2019-05-09T13:02:20.800Z,97355.83
2019-05-09T13:04:51.127Z,97362.34
2019-05-09T13:07:21.453Z,97374.62
2019-05-09T13:09:52.656Z,97379.94
2019-05-09T13:12:23.766Z,97390.89
2019-05-09T13:14:54.007Z,97398.34
2019-05-09T13:17:24.437Z,97402.78
2019-05-09T13:19:54.631Z,97403.64
2019-05-09T13:22:24.765Z,97405.39
2019-05-09T13:24:55.178Z,97405.84
2019-05-09T13:27:25.502Z,97417.04
2019-05-09T13:29:56.259Z,97404.97
2019-05-09T13:32:28.033Z,97417.16
2019-05-09T13:34:58.558Z,97424.41
2019-05-09T13:37:29.600Z,97433.97
2019-05-09T13:40:00.019Z,97424.05
2019-05-09T13:42:30.767Z,97440.77
2019-05-09T13:45:01.040Z,97453.37
2019-05-09T13:47:31.342Z,97451.39
2019-05-09T13:50:01.895Z,97450.25
2019-05-09T13:52:32.016Z,97461.52
2019-05-09T13:55:02.507Z,97459.05
2019-05-09T13:57:32.752Z,97470.05
2019-05-09T14:00:02.965Z,97474.23
2019-05-09T14:02:33.483Z,97478.84
2019-05-09T14:05:04.000Z,97488.25
2019-05-09T14:07:34.358Z,97480.75
2019-05-09T14:10:10.435Z,97484.27
2019-05-09T14:12:40.582Z,97489.55
2019-05-09T14:15:10.955Z,97484.78
2019-05-09T14:17:49.551Z,97485.11
2019-05-09T14:20:14.327Z,97496.97
2019-05-09T14:22:44.688Z,97492.34
2019-05-09T14:25:19.532Z,97499.68
2019-05-09T14:27:52.258Z,97505.28
2019-05-09T14:30:21.456Z,97519.09
2019-05-09T14:32:52.264Z,97504.86
2019-05-09T14:35:22.560Z,97520.73
2019-05-09T14:37:52.758Z,97516.30
2019-05-09T14:40:23.063Z,97528.17
2019-05-09T14:42:53.391Z,97525.55
2019-05-09T14:45:23.840Z,97534.97
2019-05-09T14:47:54.091Z,97542.52
2019-05-09T14:50:24.350Z,97540.50
2019-05-09T14:52:54.756Z,97545.86
2019-05-09T14:55:25.055Z,97548.88
2019-05-09T14:57:57.682Z,97563.92
2019-05-09T15:00:26.498Z,97555.94
2019-05-09T15:02:57.877Z,97561.52
2019-05-09T15:05:28.024Z,97567.56
2019-05-09T15:07:59.221Z,97569.12
2019-05-09T15:10:30.073Z,97568.31
2019-05-09T15:13:00.377Z,97570.00
2019-05-09T15:15:32.761Z,97585.31
2019-05-09T15:18:01.910Z,97581.81
2019-05-09T15:20:32.761Z,97586.59
2019-05-09T15:23:03.274Z,97586.84
2019-05-09T15:25:33.659Z,97592.67
2019-05-09T15:28:04.123Z,97591.22
2019-05-09T15:30:34.297Z,97594.06
2019-05-09T15:33:04.781Z,97603.92
2019-05-09T15:35:35.064Z,97599.86
2019-05-09T15:38:05.414Z,97611.44
2019-05-09T15:40:38.499Z,97647.21
2019-05-09T15:43:08.292Z,97651.77
2019-05-09T15:45:41.017Z,97668.19
2019-05-09T15:48:11.215Z,97669.27
2019-05-09T15:50:41.689Z,97668.88
2019-05-09T15:53:11.889Z,97666.70
2019-05-09T15:55:42.362Z,97672.78
2019-05-09T15:58:12.737Z,97666.73
2019-05-09T16:00:43.039Z,97676.73
2019-05-09T16:03:13.286Z,97681.31
2019-05-09T16:05:43.553Z,97666.44
2019-05-09T16:08:14.481Z,97675.56
2019-05-09T16:10:45.645Z,97682.72
2019-05-09T16:13:17.770Z,97692.33
2019-05-09T16:15:48.905Z,97685.42
2019-05-09T16:18:19.208Z,97689.77
2019-05-09T16:20:49.709Z,97685.36
2019-05-09T16:23:19.952Z,97702.61
2019-05-09T16:25:50.573Z,97698.03
2019-05-09T16:28:20.704Z,97710.35
2019-05-09T16:30:51.089Z,97712.73
2019-05-09T16:33:21.341Z,97719.36
2019-05-09T16:35:52.856Z,97718.38
2019-05-09T16:38:23.342Z,97717.59
2019-05-09T16:40:53.691Z,97719.11
2019-05-09T16:43:24.032Z,97721.58
2019-05-09T16:45:54.561Z,97725.30
2019-05-09T16:48:24.855Z,97721.05
2019-05-09T16:51:03.204Z,97724.80
2019-05-09T16:53:27.818Z,97726.25
2019-05-09T16:55:59.343Z,97718.15
2019-05-09T16:58:29.550Z,97723.68
2019-05-09T17:01:00.270Z,97730.25
2019-05-09T17:03:30.718Z,97733.61
2019-05-09T17:06:00.826Z,97733.60
2019-05-09T17:08:31.247Z,97748.63
2019-05-09T17:11:01.494Z,97747.83
2019-05-09T17:13:31.847Z,97752.89
2019-05-09T17:16:02.179Z,97752.08
2019-05-09T17:18:32.505Z,97749.81
2019-05-09T17:21:24.189Z,97750.86
2019-05-09T17:23:53.294Z,97763.27
2019-05-09T17:26:23.531Z,97756.31
2019-05-09T17:28:53.769Z,97757.85
2019-05-09T17:31:24.055Z,97760.25
2019-05-09T17:33:54.512Z,97769.20
2019-05-09T17:36:25.199Z,97772.58
2019-05-09T17:38:55.326Z,97779.66
2019-05-09T17:41:25.799Z,97771.23
2019-05-09T17:43:58.078Z,97778.98
2019-05-09T17:46:27.960Z,97787.80
2019-05-09T17:48:58.474Z,97800.14
2019-05-09T17:51:33.937Z,97795.19
2019-05-09T17:54:00.729Z,97803.98
2019-05-09T17:56:31.192Z,97798.55
2019-05-09T17:59:01.244Z,97810.41
2019-05-09T18:01:31.515Z,97807.85
2019-05-09T18:04:01.821Z,97815.62
2019-05-09T18:06:32.255Z,97818.83
2019-05-09T18:09:02.766Z,97821.53
2019-05-09T18:11:33.022Z,97824.34
2019-05-09T18:14:03.334Z,97833.65
2019-05-09T18:16:33.931Z,97833.30
2019-05-09T18:19:04.597Z,97833.98
2019-05-09T18:21:48.008Z,97843.87
2019-05-09T18:24:08.863Z,97841.80
2019-05-09T18:26:39.289Z,97850.63
2019-05-09T18:29:09.639Z,97846.05
2019-05-09T18:31:41.457Z,97843.37
2019-05-09T18:34:11.744Z,97846.88
2019-05-09T18:36:41.863Z,97853.37
2019-05-09T18:39:12.310Z,97854.37
2019-05-09T18:41:42.408Z,97857.63
2019-05-09T18:44:12.746Z,97863.83
2019-05-09T18:46:43.111Z,97862.28
2019-05-09T18:49:14.846Z,97863.64
2019-05-09T18:51:44.977Z,97875.28
2019-05-09T18:54:15.231Z,97878.14
2019-05-09T18:56:45.504Z,97883.19
2019-05-09T18:59:15.873Z,97885.44
2019-05-09T19:01:46.170Z,97884.69
2019-05-09T19:04:16.734Z,97889.08
2019-05-09T19:06:47.098Z,97895.33
2019-05-09T19:09:17.127Z,97891.79
2019-05-09T19:11:47.537Z,97899.39
2019-05-09T19:14:19.294Z,97897.64
2019-05-09T19:17:07.038Z,97897.78
2019-05-09T19:19:41.695Z,97901.98
2019-05-09T19:22:21.945Z,97919.22
2019-05-09T19:24:43.025Z,97920.92
2019-05-09T19:27:12.993Z,97924.03
2019-05-09T19:29:42.991Z,97932.72
2019-05-09T19:32:12.666Z,97941.82
2019-05-09T19:34:42.478Z,97938.09
2019-05-09T19:37:12.289Z,97947.16
2019-05-09T19:39:41.888Z,97950.10
2019-05-09T19:42:11.685Z,97953.16
2019-05-09T19:44:41.459Z,97962.02
2019-05-09T19:47:11.249Z,97966.05
2019-05-09T19:49:40.997Z,97967.78
2019-05-09T19:52:10.704Z,97972.27
2019-05-09T19:54:40.354Z,97977.31
2019-05-09T19:57:09.978Z,97975.85
2019-05-09T19:59:39.551Z,97982.36
2019-05-09T20:02:09.324Z,97993.15
2019-05-09T20:04:38.875Z,97985.27
2019-05-09T20:07:08.613Z,98000.25
2019-05-09T20:09:51.841Z,97997.97
2019-05-09T20:12:31.981Z,97999.84
2019-05-09T20:15:01.707Z,98000.95
2019-05-09T20:17:31.317Z,98006.36
2019-05-09T20:20:00.911Z,98009.91
2019-05-09T20:22:30.574Z,98020.98
2019-05-09T20:25:00.259Z,98010.30
2019-05-09T20:27:29.940Z,98016.55
2019-05-09T20:29:59.558Z,98023.86
2019-05-09T20:32:29.195Z,98029.56
2019-05-09T20:34:59.070Z,98041.92
2019-05-09T20:37:28.857Z,98044.66
2019-05-09T20:39:58.796Z,98054.77
2019-05-09T20:42:28.634Z,98053.95
2019-05-09T20:44:58.627Z,98057.36
2019-05-09T20:47:28.508Z,98058.52
2019-05-09T20:49:58.412Z,98062.39
2019-05-09T20:52:28.389Z,98059.49
2019-05-09T20:54:58.142Z,98063.56
2019-05-09T20:57:27.973Z,98064.99
2019-05-09T20:59:57.752Z,98064.14
2019-05-09T21:02:27.778Z,98071.28
2019-05-09T21:04:57.706Z,98063.75
2019-05-09T21:07:27.522Z,98069.59
2019-05-09T21:09:57.388Z,98066.36
2019-05-09T21:12:27.266Z,98069.20
2019-05-09T21:14:57.120Z,98073.17
2019-05-09T21:17:26.480Z,98071.64
2019-05-09T21:19:56.287Z,98079.80
2019-05-09T21:22:26.161Z,98073.78
2019-05-09T21:24:56.005Z,98083.77
2019-05-09T21:27:25.871Z,98080.16
2019-05-09T21:29:55.657Z,98080.59
2019-05-09T21:32:25.521Z,98083.50
2019-05-09T21:34:55.162Z,98080.00
2019-05-09T21:37:24.906Z,98086.05
2019-05-09T21:39:54.572Z,98084.75
2019-05-09T21:42:24.174Z,98086.89
2019-05-09T21:44:53.796Z,98084.72
2019-05-09T21:47:23.485Z,98083.86
2019-05-09T21:49:53.194Z,98091.19
2019-05-09T21:52:22.757Z,98091.58
2019-05-09T21:54:52.324Z,98093.78
2019-05-09T21:57:22.132Z,98093.69
2019-05-09T21:59:51.883Z,98100.38
2019-05-09T22:02:21.713Z,98094.51
2019-05-09T22:04:51.580Z,98100.17
2019-05-09T22:07:21.241Z,98098.46
2019-05-09T22:09:50.944Z,98098.14
2019-05-09T22:12:20.623Z,98098.64
2019-05-09T22:14:50.280Z,98099.90
2019-05-09T22:17:21.602Z,98102.27
2019-05-09T22:19:51.383Z,98104.52
2019-05-09T22:22:21.045Z,98106.03
2019-05-09T22:24:50.695Z,98103.89
2019-05-09T22:27:20.326Z,98109.50
2019-05-09T22:29:49.944Z,98110.87
2019-05-09T22:32:22.163Z,98112.69
2019-05-09T22:34:50.910Z,98114.39
2019-05-09T22:37:20.641Z,98116.19
2019-05-09T22:39:50.295Z,98113.48
2019-05-09T22:42:20.031Z,98118.32
2019-05-09T22:44:49.713Z,98113.57
2019-05-09T22:47:19.567Z,98118.79
2019-05-09T22:49:52.499Z,98123.41
2019-05-09T22:52:20.650Z,98123.24
2019-05-09T22:54:50.338Z,98134.02
2019-05-09T22:57:23.010Z,98138.88
2019-05-09T22:59:52.674Z,98144.77
2019-05-09T23:02:22.398Z,98151.48
2019-05-09T23:04:52.145Z,98145.83
2019-05-09T23:07:21.813Z,98149.28
2019-05-09T23:09:51.520Z,98147.31
2019-05-09T23:12:21.194Z,98151.08
2019-05-09T23:14:50.898Z,98144.41
2019-05-09T23:17:22.021Z,98145.77
2019-05-09T23:19:51.703Z,98151.70
2019-05-09T23:22:23.161Z,98153.18
2019-05-09T23:24:52.825Z,98150.22
2019-05-09T23:27:22.460Z,98146.95
2019-05-09T23:29:52.165Z,98152.56
2019-05-09T23:32:38.037Z,98151.35
2019-05-09T23:35:07.998Z,98149.64
2019-05-09T23:37:37.731Z,98158.57
2019-05-09T23:40:08.259Z,98158.41
2019-05-09T23:42:39.628Z,98151.35
2019-05-09T23:45:09.873Z,98155.87
2019-05-09T23:47:39.426Z,98159.95
2019-05-09T23:50:09.257Z,98159.89
2019-05-09T23:52:38.820Z,98160.74
2019-05-09T23:55:25.904Z,98162.73
2019-05-09T23:58:12.725Z,98160.31
